createdAt,value
2022-07-28T01:28:15.183Z,12.46
2022-07-28T02:33:00.899Z,11.44
2022-07-28T02:35:51.514Z,11.54
2022-07-28T02:49:06.522Z,11.65
2022-07-28T02:55:40.989Z,11.46
2022-07-28T03:23:16.845Z,10.66
2022-07-28T03:29:34.351Z,10.64
2022-07-28T03:39:11.509Z,10.88
2022-07-28T03:41:51.576Z,10.55
2022-07-28T03:48:33.814Z,10.43
2022-07-28T03:51:30.641Z,10.78
2022-07-28T03:54:12.040Z,11.06
2022-07-28T04:04:16.823Z,10.56
2022-07-28T04:38:03.978Z,11.68
2022-07-28T04:40:30.756Z,11.60
2022-07-28T04:42:57.580Z,11.63
2022-07-28T04:45:24.390Z,11.57
2022-07-28T04:47:52.064Z,11.73
2022-07-28T04:50:21.474Z,11.94
2022-07-28T04:52:57.528Z,12.08
2022-07-28T04:55:25.089Z,12.11
2022-07-28T04:57:51.815Z,12.18
2022-07-28T05:00:20.088Z,12.33
2022-07-28T05:02:52.921Z,12.33
2022-07-28T05:05:33.416Z,12.42
2022-07-28T05:08:00.273Z,12.57
2022-07-28T05:10:36.262Z,12.77
2022-07-28T05:33:12.565Z,13.69
2022-07-28T05:36:00.951Z,13.80
2022-07-28T05:48:22.557Z,13.96
2022-07-28T05:54:32.702Z,14.18
2022-07-28T05:56:59.529Z,14.21
2022-07-28T06:02:52.985Z,14.38
2022-07-28T06:05:23.006Z,14.47
2022-07-28T06:07:50.933Z,14.45
2022-07-28T06:10:22.693Z,14.52
2022-07-28T06:12:58.155Z,14.65
2022-07-28T06:15:26.773Z,14.81
2022-07-28T06:17:56.183Z,14.86
2022-07-28T06:20:23.787Z,14.87
2022-07-28T06:22:52.397Z,14.87
2022-07-28T06:25:30.207Z,14.87
2022-07-28T06:28:03.871Z,14.89
2022-07-28T06:30:31.952Z,14.97
2022-07-28T06:32:59.131Z,15.15
2022-07-28T06:35:26.353Z,15.23
2022-07-28T06:37:53.911Z,15.35
2022-07-28T06:40:23.099Z,15.35
2022-07-28T06:42:50.560Z,15.53
2022-07-28T06:45:21.387Z,15.54
2022-07-28T06:47:49.627Z,15.65
2022-07-28T06:50:25.033Z,15.49
2022-07-28T06:52:56.931Z,15.40
2022-07-28T06:55:25.794Z,15.58
2022-07-28T06:58:01.857Z,15.70
2022-07-28T07:00:28.785Z,15.81
2022-07-28T07:02:55.597Z,15.97
2022-07-28T07:05:22.378Z,16.01
2022-07-28T07:07:49.320Z,15.86
2022-07-28T07:10:17.595Z,15.94
2022-07-28T07:12:45.846Z,16.02
2022-07-28T07:15:15.892Z,16.05
2022-07-28T07:17:43.011Z,16.15
2022-07-28T07:20:10.700Z,16.33
2022-07-28T07:22:42.724Z,15.80
2022-07-28T07:25:11.014Z,15.67
2022-07-28T07:27:38.291Z,15.80
2022-07-28T07:30:09.631Z,15.90
2022-07-28T07:32:37.422Z,15.88
2022-07-28T07:35:05.330Z,16.05
2022-07-28T07:37:35.291Z,16.16
2022-07-28T07:40:05.847Z,16.26
2022-07-28T07:42:32.837Z,16.62
2022-07-28T07:44:59.825Z,16.65
2022-07-28T07:47:26.666Z,16.74
2022-07-28T07:49:53.477Z,16.43
2022-07-28T07:52:20.552Z,16.55
2022-07-28T07:54:47.570Z,16.58
2022-07-28T07:57:14.518Z,16.65
2022-07-28T07:59:41.910Z,16.84
2022-07-28T08:02:08.850Z,17.00
2022-07-28T08:04:38.407Z,16.98
2022-07-28T08:07:06.636Z,16.83
2022-07-28T08:09:34.679Z,16.98
2022-07-28T08:12:01.599Z,17.01
2022-07-28T08:18:10.615Z,17.20
2022-07-28T08:20:41.416Z,17.22
2022-07-28T08:23:34.563Z,17.17
2022-07-28T08:26:13.424Z,17.14
2022-07-28T08:28:58.430Z,16.93
2022-07-28T08:34:26.398Z,17.18
2022-07-28T08:37:04.817Z,17.23
2022-07-28T08:39:38.975Z,17.40
2022-07-28T08:42:24.453Z,17.35
2022-07-28T08:45:19.022Z,17.17
2022-07-28T08:48:10.707Z,17.08
2022-07-28T08:50:42.822Z,17.46
2022-07-28T08:53:20.906Z,17.21
2022-07-28T08:56:04.948Z,16.90
2022-07-28T08:58:49.935Z,17.11
2022-07-28T09:01:20.571Z,17.32
2022-07-28T09:03:49.372Z,17.24
2022-07-28T09:06:16.679Z,17.32
2022-07-28T09:08:43.887Z,17.45
2022-07-28T09:11:16.102Z,17.42
2022-07-28T09:13:42.906Z,17.48
2022-07-28T09:16:09.793Z,17.49
2022-07-28T09:19:00.800Z,17.73
2022-07-28T09:21:27.705Z,17.73
2022-07-28T09:23:57.629Z,17.68
2022-07-28T09:26:27.921Z,17.82
2022-07-28T09:29:08.826Z,17.82
2022-07-28T09:32:09.231Z,17.42
2022-07-28T09:34:48.952Z,17.73
2022-07-28T09:37:30.005Z,17.84
2022-07-28T09:40:10.799Z,17.75
2022-07-28T09:42:58.420Z,17.72
2022-07-28T09:45:29.006Z,17.91
2022-07-28T09:48:13.476Z,18.04
2022-07-28T09:50:45.120Z,17.92
2022-07-28T09:53:28.277Z,17.90
2022-07-28T09:56:01.091Z,17.62
2022-07-28T09:58:52.927Z,17.96
2022-07-28T10:01:31.162Z,18.10
2022-07-28T10:04:14.739Z,18.10
2022-07-28T10:06:45.093Z,18.27
2022-07-28T10:09:30.262Z,18.27
2022-07-28T10:12:18.494Z,17.89
2022-07-28T10:14:49.045Z,17.48
2022-07-28T10:17:27.080Z,17.61
2022-07-28T10:20:05.439Z,17.93
2022-07-28T10:22:43.491Z,17.77
2022-07-28T10:36:13.025Z,18.37
2022-07-28T10:38:55.088Z,18.53
2022-07-28T10:41:41.308Z,18.66
2022-07-28T10:44:18.486Z,18.48
2022-07-28T10:46:50.963Z,18.51
2022-07-28T10:53:03.715Z,18.78
2022-07-28T10:59:46.405Z,19.13
2022-07-28T11:02:55.650Z,19.03
2022-07-28T11:05:39.696Z,18.98
2022-07-28T11:08:15.768Z,18.97
2022-07-28T11:17:10.075Z,19.11
2022-07-28T11:20:01.126Z,19.40
2022-07-28T11:22:34.576Z,19.17
2022-07-28T11:25:19.513Z,19.36
2022-07-28T11:27:50.818Z,19.77
2022-07-28T11:30:43.939Z,20.05
2022-07-28T11:33:20.022Z,19.57
2022-07-28T11:35:47.012Z,19.83
2022-07-28T11:38:31.183Z,20.30
2022-07-28T11:41:00.541Z,20.37
2022-07-28T11:44:00.083Z,20.24
2022-07-28T11:46:30.124Z,20.18
2022-07-28T11:49:17.878Z,20.15
2022-07-28T11:52:20.810Z,20.29
2022-07-28T11:54:50.029Z,20.72
2022-07-28T11:57:24.446Z,21.15
2022-07-28T12:00:18.662Z,21.28
2022-07-28T12:02:57.803Z,21.56
2022-07-28T12:05:25.557Z,21.79
2022-07-28T12:07:56.189Z,22.10
2022-07-28T12:11:00.689Z,22.32
2022-07-28T12:13:43.694Z,21.98
2022-07-28T12:16:14.276Z,22.23
2022-07-28T12:19:11.021Z,22.26
2022-07-28T12:21:49.004Z,22.19
2022-07-28T12:24:46.054Z,21.97
2022-07-28T12:27:16.904Z,22.27
2022-07-28T12:29:58.540Z,21.88
2022-07-28T12:32:35.417Z,22.29
2022-07-28T12:35:13.855Z,22.50
2022-07-28T12:37:48.212Z,22.59
2022-07-28T12:40:26.664Z,22.54
2022-07-28T12:43:13.099Z,22.79
2022-07-28T12:45:52.623Z,22.68
2022-07-28T12:48:25.060Z,22.82
2022-07-28T12:51:31.763Z,22.82
2022-07-28T12:54:09.171Z,23.24
2022-07-28T12:56:45.787Z,23.72
2022-07-28T12:59:16.176Z,23.24
2022-07-28T13:01:54.199Z,23.46
2022-07-28T13:04:54.634Z,23.76
2022-07-28T13:07:21.506Z,24.01
2022-07-28T13:10:02.417Z,24.30
2022-07-28T13:12:44.884Z,24.56
2022-07-28T13:15:27.308Z,25.00
2022-07-28T13:17:56.442Z,25.52
2022-07-28T13:20:26.790Z,25.13
2022-07-28T16:14:34.689Z,31.62
2022-07-28T16:17:29.659Z,30.43
2022-07-28T16:23:38.122Z,29.46
2022-07-28T16:26:20.345Z,28.83
2022-07-28T16:28:47.933Z,28.52
2022-07-28T16:31:14.756Z,28.41
2022-07-28T16:33:41.611Z,28.11
2022-07-28T16:36:10.904Z,27.91
2022-07-28T16:39:09.955Z,27.93
2022-07-28T16:45:53.012Z,27.63
2022-07-28T16:48:20.853Z,27.72
2022-07-28T16:50:47.610Z,27.73
2022-07-28T16:53:14.586Z,27.19
2022-07-28T16:55:42.351Z,26.81
2022-07-28T16:58:09.066Z,26.88
2022-07-28T17:00:36.092Z,26.74
2022-07-28T17:03:02.814Z,26.56
2022-07-28T17:05:29.482Z,26.27
2022-07-28T17:07:56.310Z,25.78
2022-07-28T17:10:27.070Z,25.72
2022-07-28T17:12:54.643Z,25.67
2022-07-28T17:15:22.745Z,25.48
2022-07-28T17:17:54.593Z,25.53
2022-07-28T17:20:25.572Z,25.53
2022-07-28T17:22:52.447Z,25.46
2022-07-28T17:28:06.925Z,25.00
2022-07-28T17:30:34.392Z,25.11
2022-07-28T17:33:07.886Z,25.29
2022-07-28T17:35:36.400Z,25.22
2022-07-28T17:38:04.548Z,25.12
2022-07-28T17:40:31.235Z,25.17
2022-07-28T17:42:58.043Z,25.10
2022-07-28T17:45:45.810Z,25.02
2022-07-28T17:48:12.741Z,24.95
2022-07-28T17:50:42.910Z,24.77
2022-07-28T17:53:22.038Z,24.77
2022-07-28T17:55:59.947Z,24.65
2022-07-28T17:58:29.533Z,24.62
2022-07-28T18:01:11.205Z,24.57
2022-07-28T18:03:59.343Z,24.34
2022-07-28T18:06:29.700Z,24.10
2022-07-28T18:08:56.725Z,24.06
2022-07-28T18:11:23.497Z,23.92
2022-07-28T18:14:03.605Z,23.74
2022-07-28T18:16:35.219Z,23.48
2022-07-28T18:19:02.765Z,23.30
2022-07-28T18:21:29.603Z,23.12
2022-07-28T18:23:56.354Z,22.99
2022-07-28T18:26:23.107Z,22.89
2022-07-28T18:28:50.009Z,22.75
2022-07-28T18:31:16.830Z,22.60
2022-07-28T18:33:44.135Z,22.48
2022-07-28T18:36:10.846Z,22.33
2022-07-28T18:38:37.552Z,22.27
2022-07-28T18:41:05.138Z,22.18
2022-07-28T18:43:31.811Z,22.11
2022-07-28T18:45:58.520Z,22.03
2022-07-28T18:48:28.101Z,21.92
2022-07-28T18:50:54.827Z,21.80
2022-07-28T18:53:21.576Z,21.69
2022-07-28T18:55:48.286Z,21.55
2022-07-28T18:58:15.003Z,21.42
2022-07-28T19:00:41.777Z,21.26
2022-07-28T19:03:08.640Z,21.09
2022-07-28T19:05:36.701Z,20.94
2022-07-28T19:08:05.464Z,20.80
2022-07-28T19:11:47.555Z,20.71
2022-07-28T19:14:00.816Z,20.54
2022-07-28T19:16:27.648Z,20.43
2022-07-28T19:18:54.823Z,20.40
2022-07-28T19:21:24.566Z,20.27
2022-07-28T19:24:00.042Z,20.25
2022-07-28T19:26:41.584Z,20.26
2022-07-28T19:29:27.810Z,20.16
2022-07-28T19:32:05.023Z,20.11
2022-07-28T19:34:36.550Z,20.07
2022-07-28T19:37:03.845Z,19.95
2022-07-28T19:39:34.230Z,19.84
2022-07-28T19:42:01.132Z,19.78
2022-07-28T19:44:30.293Z,19.65
2022-07-28T19:47:00.597Z,19.53
2022-07-28T19:49:27.464Z,19.40
2022-07-28T19:51:55.809Z,19.33
2022-07-28T19:54:23.849Z,19.31
2022-07-28T19:56:52.434Z,19.27
2022-07-28T19:59:22.588Z,19.20
2022-07-28T20:01:51.872Z,19.23
2022-07-28T20:04:21.495Z,19.21
2022-07-28T20:06:54.841Z,19.16
2022-07-28T20:09:22.425Z,19.13
2022-07-28T20:11:49.846Z,18.95
2022-07-28T20:14:17.530Z,18.97
2022-07-28T20:16:46.404Z,19.06
2022-07-28T20:19:16.603Z,19.05
2022-07-28T20:21:45.789Z,18.99
2022-07-28T20:24:21.793Z,18.93
2022-07-28T20:26:48.720Z,18.90
2022-07-28T20:29:18.400Z,18.83
2022-07-28T20:31:47.731Z,18.79
2022-07-28T20:34:15.485Z,18.81
2022-07-28T20:36:42.741Z,18.74
2022-07-28T20:39:42.179Z,18.66
2022-07-28T20:41:58.894Z,18.64
2022-07-28T20:44:29.190Z,18.59
2022-07-28T20:47:00.585Z,18.54
2022-07-28T20:49:28.788Z,18.51
2022-07-28T20:52:05.901Z,18.45
2022-07-28T20:54:38.276Z,18.36
2022-07-28T20:57:14.848Z,18.28
2022-07-28T20:59:54.133Z,18.24
2022-07-28T21:02:22.325Z,18.18
2022-07-28T21:04:50.523Z,18.10
2022-07-28T21:08:00.603Z,17.89
2022-07-28T21:10:17.055Z,17.88
2022-07-28T21:12:50.049Z,17.80
2022-07-28T21:15:49.900Z,17.83
2022-07-28T21:18:27.590Z,17.73
2022-07-28T21:21:12.161Z,17.58
2022-07-28T21:23:45.750Z,17.56
2022-07-28T21:26:27.139Z,17.43
2022-07-28T21:32:05.974Z,17.36
2022-07-28T21:34:48.535Z,17.29
2022-07-28T21:37:23.738Z,17.30
2022-07-28T21:39:56.030Z,17.17
2022-07-28T21:42:40.877Z,17.06
2022-07-28T21:45:11.408Z,17.04
2022-07-28T21:48:06.114Z,16.94
2022-07-28T21:50:38.023Z,16.84
2022-07-28T21:53:07.981Z,16.81
2022-07-28T21:55:35.305Z,16.75
2022-07-28T21:58:13.850Z,16.75
2022-07-28T22:00:47.919Z,16.71
2022-07-28T22:03:15.255Z,16.61
2022-07-28T22:05:47.311Z,16.65
2022-07-28T22:08:14.234Z,16.63
2022-07-28T22:10:51.896Z,16.60
2022-07-28T22:13:23.418Z,16.51
2022-07-28T22:15:53.621Z,16.56
2022-07-28T22:18:23.262Z,16.51
2022-07-28T22:21:01.194Z,16.43
2022-07-28T22:23:29.083Z,16.41
2022-07-28T22:25:59.696Z,16.41
2022-07-28T22:28:35.259Z,16.43
2022-07-28T22:31:25.587Z,16.35
2022-07-28T22:34:04.955Z,16.30
2022-07-28T22:36:32.193Z,16.18
2022-07-28T22:39:07.225Z,16.25
2022-07-28T22:41:39.844Z,16.17
2022-07-28T22:44:19.653Z,16.17
2022-07-28T22:46:49.164Z,16.15
2022-07-28T22:49:16.780Z,16.16
2022-07-28T22:51:51.564Z,16.08
2022-07-28T22:54:22.521Z,16.06
2022-07-28T22:56:49.760Z,16.04
2022-07-28T22:59:35.705Z,16.00
2022-07-28T23:02:16.062Z,15.98
2022-07-28T23:05:07.152Z,15.91
2022-07-28T23:07:52.987Z,15.91
2022-07-28T23:10:27.014Z,15.89
2022-07-28T23:12:56.129Z,15.90
2022-07-28T23:15:40.797Z,15.79
2022-07-28T23:18:10.704Z,15.63
2022-07-28T23:20:39.067Z,15.63
2022-07-28T23:23:06.402Z,15.64
2022-07-28T23:25:33.751Z,15.59
2022-07-28T23:28:00.892Z,15.59
2022-07-28T23:30:30.759Z,15.55
2022-07-28T23:32:57.891Z,15.43
2022-07-28T23:35:27.305Z,15.42
2022-07-28T23:37:54.260Z,15.34
2022-07-28T23:40:21.485Z,15.34
2022-07-28T23:42:48.881Z,15.31
2022-07-28T23:45:18.527Z,15.25
2022-07-28T23:47:45.516Z,15.24
2022-07-28T23:50:15.056Z,15.26
2022-07-28T23:52:42.224Z,15.18
2022-07-28T23:55:09.426Z,15.23
2022-07-28T23:57:39.113Z,15.23
